sensor_id;sensor_type;location;lat;lon;timestamp;temperature;humidity
73133;DHT22;61320;52.008;4.530;2022-10-16T00:01:25;16.05;73.99
73133;DHT22;61320;52.008;4.530;2022-10-16T00:03:51;16.02;73.80
73133;DHT22;61320;52.008;4.530;2022-10-16T00:06:19;16.05;72.95
73133;DHT22;61320;52.008;4.530;2022-10-16T00:08:46;16.06;73.40
73133;DHT22;61320;52.008;4.530;2022-10-16T00:11:16;16.00;73.24
73133;DHT22;61320;52.008;4.530;2022-10-16T00:13:43;16.02;73.73
73133;DHT22;61320;52.008;4.530;2022-10-16T00:16:11;16.01;72.75
73133;DHT22;61320;52.008;4.530;2022-10-16T00:18:36;15.98;73.23
73133;DHT22;61320;52.008;4.530;2022-10-16T00:21:09;16.01;73.76
73133;DHT22;61320;52.008;4.530;2022-10-16T00:23:35;16.08;73.98
73133;DHT22;61320;52.008;4.530;2022-10-16T00:26:07;15.98;73.40
73133;DHT22;61320;52.008;4.530;2022-10-16T00:28:33;15.84;73.36
73133;DHT22;61320;52.008;4.530;2022-10-16T00:30:59;15.78;73.09
73133;DHT22;61320;52.008;4.530;2022-10-16T00:33:27;15.75;72.72
73133;DHT22;61320;52.008;4.530;2022-10-16T00:35:52;15.80;73.87
73133;DHT22;61320;52.008;4.530;2022-10-16T00:38:18;15.77;74.43
73133;DHT22;61320;52.008;4.530;2022-10-16T00:40:43;15.85;73.63
73133;DHT22;61320;52.008;4.530;2022-10-16T00:43:32;15.91;74.32
73133;DHT22;61320;52.008;4.530;2022-10-16T00:46:00;15.93;74.16
73133;DHT22;61320;52.008;4.530;2022-10-16T00:48:26;15.97;73.80
73133;DHT22;61320;52.008;4.530;2022-10-16T00:50:52;15.95;74.68
73133;DHT22;61320;52.008;4.530;2022-10-16T00:53:19;15.98;74.50
73133;DHT22;61320;52.008;4.530;2022-10-16T00:55:45;16.02;74.20
73133;DHT22;61320;52.008;4.530;2022-10-16T00:58:11;16.02;74.45
73133;DHT22;61320;52.008;4.530;2022-10-16T01:00:37;15.97;73.84
73133;DHT22;61320;52.008;4.530;2022-10-16T01:03:21;15.97;75.19
73133;DHT22;61320;52.008;4.530;2022-10-16T01:05:59;16.05;75.52
73133;DHT22;61320;52.008;4.530;2022-10-16T01:08:38;15.97;74.21
73133;DHT22;61320;52.008;4.530;2022-10-16T01:11:19;15.93;75.16
73133;DHT22;61320;52.008;4.530;2022-10-16T01:13:54;15.91;75.54
73133;DHT22;61320;52.008;4.530;2022-10-16T01:16:47;15.88;76.00
73133;DHT22;61320;52.008;4.530;2022-10-16T01:21:53;15.91;76.44
73133;DHT22;61320;52.008;4.530;2022-10-16T01:27:28;15.87;76.61
73133;DHT22;61320;52.008;4.530;2022-10-16T01:32:51;15.74;76.25
73133;DHT22;61320;52.008;4.530;2022-10-16T01:35:26;15.66;77.43
73133;DHT22;61320;52.008;4.530;2022-10-16T01:38:03;15.73;76.87
73133;DHT22;61320;52.008;4.530;2022-10-16T01:40:34;15.63;76.19
73133;DHT22;61320;52.008;4.530;2022-10-16T01:43:06;15.60;76.95
73133;DHT22;61320;52.008;4.530;2022-10-16T01:45:35;15.58;77.11
73133;DHT22;61320;52.008;4.530;2022-10-16T01:48:02;15.66;77.72
73133;DHT22;61320;52.008;4.530;2022-10-16T01:50:35;15.67;76.75
73133;DHT22;61320;52.008;4.530;2022-10-16T01:53:05;15.64;77.21
73133;DHT22;61320;52.008;4.530;2022-10-16T01:55:36;15.63;77.67
73133;DHT22;61320;52.008;4.530;2022-10-16T01:58:07;15.68;77.24
73133;DHT22;61320;52.008;4.530;2022-10-16T02:00:34;15.75;77.23
73133;DHT22;61320;52.008;4.530;2022-10-16T02:03:04;15.68;76.65
73133;DHT22;61320;52.008;4.530;2022-10-16T02:05:50;15.60;76.95
73133;DHT22;61320;52.008;4.530;2022-10-16T02:08:17;15.75;76.99
73133;DHT22;61320;52.008;4.530;2022-10-16T02:10:43;15.75;76.90
73133;DHT22;61320;52.008;4.530;2022-10-16T02:13:14;15.78;76.09
73133;DHT22;61320;52.008;4.530;2022-10-16T02:15:42;15.78;76.20
73133;DHT22;61320;52.008;4.530;2022-10-16T02:18:09;15.78;75.95
73133;DHT22;61320;52.008;4.530;2022-10-16T02:20:55;15.71;76.60
73133;DHT22;61320;52.008;4.530;2022-10-16T02:23:45;15.71;77.48
73133;DHT22;61320;52.008;4.530;2022-10-16T02:26:27;15.74;76.77
73133;DHT22;61320;52.008;4.530;2022-10-16T02:29:00;15.68;76.11
73133;DHT22;61320;52.008;4.530;2022-10-16T02:31:31;15.66;77.15
73133;DHT22;61320;52.008;4.530;2022-10-16T02:34:01;15.71;77.07
73133;DHT22;61320;52.008;4.530;2022-10-16T02:36:29;15.75;76.82
73133;DHT22;61320;52.008;4.530;2022-10-16T02:38:55;15.77;77.18
73133;DHT22;61320;52.008;4.530;2022-10-16T02:41:22;15.78;76.90
73133;DHT22;61320;52.008;4.530;2022-10-16T02:43:48;15.77;76.76
73133;DHT22;61320;52.008;4.530;2022-10-16T02:46:15;15.73;76.44
73133;DHT22;61320;52.008;4.530;2022-10-16T02:48:41;15.67;76.01
73133;DHT22;61320;52.008;4.530;2022-10-16T02:51:07;15.57;77.31
73133;DHT22;61320;52.008;4.530;2022-10-16T02:53:32;15.57;77.44
73133;DHT22;61320;52.008;4.530;2022-10-16T02:55:58;15.50;76.58
73133;DHT22;61320;52.008;4.530;2022-10-16T02:58:24;15.54;77.06
73133;DHT22;61320;52.008;4.530;2022-10-16T03:00:49;15.54;77.09
73133;DHT22;61320;52.008;4.530;2022-10-16T03:03:14;15.49;77.58
73133;DHT22;61320;52.008;4.530;2022-10-16T03:05:40;15.49;77.41
73133;DHT22;61320;52.008;4.530;2022-10-16T03:08:05;15.50;77.65
73133;DHT22;61320;52.008;4.530;2022-10-16T03:10:31;15.44;78.05
73133;DHT22;61320;52.008;4.530;2022-10-16T03:12:56;15.40;78.03
73133;DHT22;61320;52.008;4.530;2022-10-16T03:15:22;15.46;78.05
73133;DHT22;61320;52.008;4.530;2022-10-16T03:17:47;15.49;78.10
73133;DHT22;61320;52.008;4.530;2022-10-16T03:20:13;15.58;77.53
73133;DHT22;61320;52.008;4.530;2022-10-16T03:22:39;15.57;77.43
73133;DHT22;61320;52.008;4.530;2022-10-16T03:25:04;15.56;78.00
73133;DHT22;61320;52.008;4.530;2022-10-16T03:27:30;15.58;78.30
73133;DHT22;61320;52.008;4.530;2022-10-16T03:29:55;15.53;77.95
73133;DHT22;61320;52.008;4.530;2022-10-16T03:32:24;15.57;78.33
73133;DHT22;61320;52.008;4.530;2022-10-16T03:34:50;15.50;77.91
73133;DHT22;61320;52.008;4.530;2022-10-16T03:37:16;15.50;78.13
73133;DHT22;61320;52.008;4.530;2022-10-16T03:39:45;15.54;77.32
73133;DHT22;61320;52.008;4.530;2022-10-16T03:42:11;15.61;77.89
73133;DHT22;61320;52.008;4.530;2022-10-16T03:44:37;15.54;77.99
73133;DHT22;61320;52.008;4.530;2022-10-16T03:47:03;15.56;77.39
73133;DHT22;61320;52.008;4.530;2022-10-16T03:49:28;15.56;77.49
73133;DHT22;61320;52.008;4.530;2022-10-16T03:51:54;15.56;78.12
73133;DHT22;61320;52.008;4.530;2022-10-16T03:54:20;15.56;77.09
73133;DHT22;61320;52.008;4.530;2022-10-16T03:56:47;15.61;78.42
73133;DHT22;61320;52.008;4.530;2022-10-16T03:59:13;15.70;77.56
73133;DHT22;61320;52.008;4.530;2022-10-16T04:01:38;15.70;76.30
73133;DHT22;61320;52.008;4.530;2022-10-16T04:04:04;15.57;77.25
73133;DHT22;61320;52.008;4.530;2022-10-16T04:06:29;15.58;78.21
73133;DHT22;61320;52.008;4.530;2022-10-16T04:08:55;15.64;77.14
73133;DHT22;61320;52.008;4.530;2022-10-16T04:11:21;15.56;77.47
73133;DHT22;61320;52.008;4.530;2022-10-16T04:13:47;15.54;77.92
73133;DHT22;61320;52.008;4.530;2022-10-16T04:16:12;15.61;77.90
73133;DHT22;61320;52.008;4.530;2022-10-16T04:18:38;15.58;78.03
73133;DHT22;61320;52.008;4.530;2022-10-16T04:21:05;15.49;77.64
73133;DHT22;61320;52.008;4.530;2022-10-16T04:23:31;15.39;78.31
73133;DHT22;61320;52.008;4.530;2022-10-16T04:25:56;15.49;78.79
73133;DHT22;61320;52.008;4.530;2022-10-16T04:28:22;15.54;78.49
73133;DHT22;61320;52.008;4.530;2022-10-16T04:30:47;15.58;77.98
73133;DHT22;61320;52.008;4.530;2022-10-16T04:33:13;15.54;78.09
73133;DHT22;61320;52.008;4.530;2022-10-16T04:35:38;15.50;78.41
73133;DHT22;61320;52.008;4.530;2022-10-16T04:38:04;15.50;77.82
73133;DHT22;61320;52.008;4.530;2022-10-16T04:40:29;15.47;78.95
73133;DHT22;61320;52.008;4.530;2022-10-16T04:42:58;15.49;78.70
73133;DHT22;61320;52.008;4.530;2022-10-16T04:45:24;15.49;78.50
73133;DHT22;61320;52.008;4.530;2022-10-16T04:47:50;15.57;77.93
73133;DHT22;61320;52.008;4.530;2022-10-16T04:50:15;15.54;78.68
73133;DHT22;61320;52.008;4.530;2022-10-16T04:52:41;15.44;77.95
73133;DHT22;61320;52.008;4.530;2022-10-16T04:55:07;15.39;79.09
73133;DHT22;61320;52.008;4.530;2022-10-16T04:57:32;15.43;78.21
73133;DHT22;61320;52.008;4.530;2022-10-16T04:59:59;15.40;79.14
73133;DHT22;61320;52.008;4.530;2022-10-16T05:02:24;15.42;79.13
73133;DHT22;61320;52.008;4.530;2022-10-16T05:04:50;15.50;78.26
73133;DHT22;61320;52.008;4.530;2022-10-16T05:07:16;15.53;78.41
73133;DHT22;61320;52.008;4.530;2022-10-16T05:09:41;15.47;78.66
73133;DHT22;61320;52.008;4.530;2022-10-16T05:12:07;15.47;78.82
73133;DHT22;61320;52.008;4.530;2022-10-16T05:14:32;15.56;78.63
73133;DHT22;61320;52.008;4.530;2022-10-16T05:16:59;15.60;78.65
73133;DHT22;61320;52.008;4.530;2022-10-16T05:19:25;15.68;78.55
73133;DHT22;61320;52.008;4.530;2022-10-16T05:21:50;15.75;78.58
73133;DHT22;61320;52.008;4.530;2022-10-16T05:24:16;15.64;78.72
73133;DHT22;61320;52.008;4.530;2022-10-16T05:26:41;15.56;79.62
73133;DHT22;61320;52.008;4.530;2022-10-16T05:29:07;15.49;79.75
73133;DHT22;61320;52.008;4.530;2022-10-16T05:31:32;15.39;80.55
73133;DHT22;61320;52.008;4.530;2022-10-16T05:34:01;15.35;81.17
73133;DHT22;61320;52.008;4.530;2022-10-16T05:36:27;15.36;80.63
73133;DHT22;61320;52.008;4.530;2022-10-16T05:38:53;15.23;81.43
73133;DHT22;61320;52.008;4.530;2022-10-16T05:41:19;15.29;81.17
73133;DHT22;61320;52.008;4.530;2022-10-16T05:43:47;15.25;81.78
73133;DHT22;61320;52.008;4.530;2022-10-16T05:46:14;15.23;81.67
73133;DHT22;61320;52.008;4.530;2022-10-16T05:48:40;15.25;81.21
73133;DHT22;61320;52.008;4.530;2022-10-16T05:51:07;15.22;81.53
73133;DHT22;61320;52.008;4.530;2022-10-16T05:53:36;15.25;81.39
73133;DHT22;61320;52.008;4.530;2022-10-16T05:56:03;15.26;81.46
73133;DHT22;61320;52.008;4.530;2022-10-16T05:58:31;15.32;81.32
73133;DHT22;61320;52.008;4.530;2022-10-16T06:00:59;15.29;81.13
73133;DHT22;61320;52.008;4.530;2022-10-16T06:03:25;15.32;81.47
73133;DHT22;61320;52.008;4.530;2022-10-16T06:05:50;15.35;81.01
73133;DHT22;61320;52.008;4.530;2022-10-16T06:08:17;15.36;80.63
73133;DHT22;61320;52.008;4.530;2022-10-16T06:10:43;15.23;79.58
73133;DHT22;61320;52.008;4.530;2022-10-16T06:13:10;15.20;81.23
73133;DHT22;61320;52.008;4.530;2022-10-16T06:15:35;15.23;80.36
73133;DHT22;61320;52.008;4.530;2022-10-16T06:18:01;15.15;80.61
73133;DHT22;61320;52.008;4.530;2022-10-16T06:20:26;15.10;81.00
73133;DHT22;61320;52.008;4.530;2022-10-16T06:22:52;15.22;80.78
73133;DHT22;61320;52.008;4.530;2022-10-16T06:25:17;15.27;80.40
73133;DHT22;61320;52.008;4.530;2022-10-16T06:27:43;15.23;79.87
73133;DHT22;61320;52.008;4.530;2022-10-16T06:30:08;15.23;79.37
73133;DHT22;61320;52.008;4.530;2022-10-16T06:32:34;15.16;78.81
73133;DHT22;61320;52.008;4.530;2022-10-16T06:34:59;15.12;78.72
73133;DHT22;61320;52.008;4.530;2022-10-16T06:37:29;15.02;79.17
73133;DHT22;61320;52.008;4.530;2022-10-16T06:39:54;15.06;80.24
73133;DHT22;61320;52.008;4.530;2022-10-16T06:42:20;15.07;79.09
73133;DHT22;61320;52.008;4.530;2022-10-16T06:44:45;15.12;78.71
73133;DHT22;61320;52.008;4.530;2022-10-16T06:47:11;15.07;79.26
73133;DHT22;61320;52.008;4.530;2022-10-16T06:49:39;15.12;79.10
73133;DHT22;61320;52.008;4.530;2022-10-16T06:52:05;15.10;79.67
73133;DHT22;61320;52.008;4.530;2022-10-16T06:54:30;15.13;79.48
73133;DHT22;61320;52.008;4.530;2022-10-16T06:56:59;15.13;79.76
73133;DHT22;61320;52.008;4.530;2022-10-16T06:59:25;15.19;79.83
73133;DHT22;61320;52.008;4.530;2022-10-16T07:01:50;15.19;80.06
73133;DHT22;61320;52.008;4.530;2022-10-16T07:04:16;15.20;80.02
73133;DHT22;61320;52.008;4.530;2022-10-16T07:06:41;15.26;79.70
73133;DHT22;61320;52.008;4.530;2022-10-16T07:09:09;15.29;79.06
73133;DHT22;61320;52.008;4.530;2022-10-16T07:11:36;15.25;78.80
73133;DHT22;61320;52.008;4.530;2022-10-16T07:14:03;15.20;78.99
73133;DHT22;61320;52.008;4.530;2022-10-16T07:16:31;15.23;79.82
73133;DHT22;61320;52.008;4.530;2022-10-16T07:18:59;15.18;80.33
73133;DHT22;61320;52.008;4.530;2022-10-16T07:21:30;15.25;79.06
73133;DHT22;61320;52.008;4.530;2022-10-16T07:24:01;15.20;80.06
73133;DHT22;61320;52.008;4.530;2022-10-16T07:26:29;15.16;79.99
73133;DHT22;61320;52.008;4.530;2022-10-16T07:28:56;15.22;79.74
73133;DHT22;61320;52.008;4.530;2022-10-16T07:31:23;15.33;80.20
73133;DHT22;61320;52.008;4.530;2022-10-16T07:33:50;15.36;80.28
73133;DHT22;61320;52.008;4.530;2022-10-16T07:36:17;15.35;79.90
73133;DHT22;61320;52.008;4.530;2022-10-16T07:38:47;15.47;79.64
73133;DHT22;61320;52.008;4.530;2022-10-16T07:41:18;15.58;79.21
73133;DHT22;61320;52.008;4.530;2022-10-16T07:43:54;15.63;79.15
73133;DHT22;61320;52.008;4.530;2022-10-16T07:46:22;15.67;79.19
73133;DHT22;61320;52.008;4.530;2022-10-16T07:48:48;15.68;79.02
73133;DHT22;61320;52.008;4.530;2022-10-16T07:51:16;15.73;79.03
73133;DHT22;61320;52.008;4.530;2022-10-16T07:53:42;15.80;78.32
73133;DHT22;61320;52.008;4.530;2022-10-16T07:56:08;15.81;78.96
73133;DHT22;61320;52.008;4.530;2022-10-16T07:58:35;15.94;78.26
73133;DHT22;61320;52.008;4.530;2022-10-16T08:01:05;15.97;78.14
73133;DHT22;61320;52.008;4.530;2022-10-16T08:03:31;15.87;77.65
73133;DHT22;61320;52.008;4.530;2022-10-16T08:05:57;15.85;78.23
73133;DHT22;61320;52.008;4.530;2022-10-16T08:08:23;15.81;78.84
73133;DHT22;61320;52.008;4.530;2022-10-16T08:10:49;15.83;78.56
73133;DHT22;61320;52.008;4.530;2022-10-16T08:13:14;15.84;78.62
73133;DHT22;61320;52.008;4.530;2022-10-16T08:15:41;15.85;78.18
73133;DHT22;61320;52.008;4.530;2022-10-16T08:18:07;15.73;78.21
73133;DHT22;61320;52.008;4.530;2022-10-16T08:20:33;15.71;78.38
73133;DHT22;61320;52.008;4.530;2022-10-16T08:22:59;15.73;78.49
73133;DHT22;61320;52.008;4.530;2022-10-16T08:25:25;15.77;78.15
73133;DHT22;61320;52.008;4.530;2022-10-16T08:27:51;15.78;78.03
73133;DHT22;61320;52.008;4.530;2022-10-16T08:30:19;15.84;78.69
73133;DHT22;61320;52.008;4.530;2022-10-16T08:32:45;15.88;79.36
73133;DHT22;61320;52.008;4.530;2022-10-16T08:35:13;16.01;77.52
73133;DHT22;61320;52.008;4.530;2022-10-16T08:37:40;16.02;78.54
73133;DHT22;61320;52.008;4.530;2022-10-16T08:40:28;16.09;78.50
73133;DHT22;61320;52.008;4.530;2022-10-16T08:46:15;16.32;77.24
73133;DHT22;61320;52.008;4.530;2022-10-16T08:48:47;16.24;77.44
73133;DHT22;61320;52.008;4.530;2022-10-16T08:51:40;16.48;77.12
73133;DHT22;61320;52.008;4.530;2022-10-16T08:56:49;16.66;76.94
73133;DHT22;61320;52.008;4.530;2022-10-16T08:59:31;16.73;77.49
73133;DHT22;61320;52.008;4.530;2022-10-16T09:01:56;16.80;76.22
73133;DHT22;61320;52.008;4.530;2022-10-16T09:04:46;16.95;76.10
73133;DHT22;61320;52.008;4.530;2022-10-16T09:12:58;17.08;75.65
73133;DHT22;61320;52.008;4.530;2022-10-16T09:15:40;17.17;75.43
73133;DHT22;61320;52.008;4.530;2022-10-16T09:18:36;17.45;74.67
73133;DHT22;61320;52.008;4.530;2022-10-16T09:21:18;17.51;74.59
73133;DHT22;61320;52.008;4.530;2022-10-16T09:23:47;17.32;75.26
73133;DHT22;61320;52.008;4.530;2022-10-16T09:26:15;17.27;75.06
73133;DHT22;61320;52.008;4.530;2022-10-16T09:28:52;17.11;74.79
73133;DHT22;61320;52.008;4.530;2022-10-16T09:31:21;17.12;76.23
73133;DHT22;61320;52.008;4.530;2022-10-16T09:33:52;17.32;76.24
73133;DHT22;61320;52.008;4.530;2022-10-16T09:36:21;17.31;74.50
73133;DHT22;61320;52.008;4.530;2022-10-16T09:38:48;17.31;74.54
73133;DHT22;61320;52.008;4.530;2022-10-16T09:41:21;17.04;75.01
73133;DHT22;61320;52.008;4.530;2022-10-16T09:46:28;16.99;75.16
73133;DHT22;61320;52.008;4.530;2022-10-16T09:49:00;17.08;75.53
73133;DHT22;61320;52.008;4.530;2022-10-16T09:51:34;17.15;75.10
73133;DHT22;61320;52.008;4.530;2022-10-16T09:56:36;17.03;73.81
73133;DHT22;61320;52.008;4.530;2022-10-16T09:59:13;16.80;74.48
73133;DHT22;61320;52.008;4.530;2022-10-16T10:01:45;16.80;75.41
73133;DHT22;61320;52.008;4.530;2022-10-16T10:04:12;16.85;74.64
73133;DHT22;61320;52.008;4.530;2022-10-16T10:06:45;16.87;76.22
73133;DHT22;61320;52.008;4.530;2022-10-16T10:09:30;16.93;75.05
73133;DHT22;61320;52.008;4.530;2022-10-16T10:12:00;16.81;73.44
73133;DHT22;61320;52.008;4.530;2022-10-16T10:14:39;16.73;73.83
73133;DHT22;61320;52.008;4.530;2022-10-16T10:17:14;16.70;72.74
73133;DHT22;61320;52.008;4.530;2022-10-16T10:19:47;16.53;74.03
73133;DHT22;61320;52.008;4.530;2022-10-16T10:22:17;16.64;73.94
73133;DHT22;61320;52.008;4.530;2022-10-16T10:24:54;16.69;74.64
73133;DHT22;61320;52.008;4.530;2022-10-16T10:27:26;16.85;73.50
73133;DHT22;61320;52.008;4.530;2022-10-16T10:30:01;16.90;74.52
73133;DHT22;61320;52.008;4.530;2022-10-16T10:33:05;17.08;74.16
73133;DHT22;61320;52.008;4.530;2022-10-16T10:35:42;17.14;73.91
73133;DHT22;61320;52.008;4.530;2022-10-16T10:38:35;17.28;73.98
73133;DHT22;61320;52.008;4.530;2022-10-16T10:41:20;17.34;71.78
73133;DHT22;61320;52.008;4.530;2022-10-16T10:52:57;17.38;71.33
73133;DHT22;61320;52.008;4.530;2022-10-16T11:01:50;17.30;72.88
73133;DHT22;61320;52.008;4.530;2022-10-16T11:07:24;17.39;74.10
73133;DHT22;61320;52.008;4.530;2022-10-16T11:09:56;17.38;69.77
73133;DHT22;61320;52.008;4.530;2022-10-16T11:12:31;17.22;70.91
73133;DHT22;61320;52.008;4.530;2022-10-16T11:15:11;17.25;72.77
73133;DHT22;61320;52.008;4.530;2022-10-16T11:17:42;17.39;71.65
73133;DHT22;61320;52.008;4.530;2022-10-16T11:20:29;17.51;69.92
73133;DHT22;61320;52.008;4.530;2022-10-16T11:23:09;17.56;69.23
73133;DHT22;61320;52.008;4.530;2022-10-16T11:25:39;17.61;69.13
73133;DHT22;61320;52.008;4.530;2022-10-16T11:30:54;17.58;69.56
73133;DHT22;61320;52.008;4.530;2022-10-16T11:33:32;17.53;68.87
73133;DHT22;61320;52.008;4.530;2022-10-16T11:49:33;18.23;66.56
73133;DHT22;61320;52.008;4.530;2022-10-16T11:52:41;18.13;67.41
73133;DHT22;61320;52.008;4.530;2022-10-16T11:55:18;18.18;70.10
73133;DHT22;61320;52.008;4.530;2022-10-16T11:57:51;18.14;66.35
73133;DHT22;61320;52.008;4.530;2022-10-16T12:00:28;18.14;66.08
73133;DHT22;61320;52.008;4.530;2022-10-16T12:03:22;18.00;63.93
73133;DHT22;61320;52.008;4.530;2022-10-16T12:08:34;18.10;67.40
73133;DHT22;61320;52.008;4.530;2022-10-16T12:11:33;18.01;66.18
73133;DHT22;61320;52.008;4.530;2022-10-16T12:14:20;18.00;66.51
73133;DHT22;61320;52.008;4.530;2022-10-16T12:16:54;17.96;63.79
73133;DHT22;61320;52.008;4.530;2022-10-16T12:19:22;17.82;64.33
73133;DHT22;61320;52.008;4.530;2022-10-16T12:21:50;17.75;64.77
73133;DHT22;61320;52.008;4.530;2022-10-16T12:24:42;17.75;66.04
73133;DHT22;61320;52.008;4.530;2022-10-16T12:27:30;17.79;66.61
73133;DHT22;61320;52.008;4.530;2022-10-16T12:29:59;17.65;67.02
73133;DHT22;61320;52.008;4.530;2022-10-16T12:32:34;17.63;67.83
73133;DHT22;61320;52.008;4.530;2022-10-16T12:35:03;17.63;68.84
73133;DHT22;61320;52.008;4.530;2022-10-16T12:37:37;17.79;67.70
73133;DHT22;61320;52.008;4.530;2022-10-16T12:42:49;18.04;66.47
73133;DHT22;61320;52.008;4.530;2022-10-16T12:45:30;18.09;66.11
73133;DHT22;61320;52.008;4.530;2022-10-16T12:47:59;18.14;68.57
73133;DHT22;61320;52.008;4.530;2022-10-16T12:50:37;18.18;66.03
73133;DHT22;61320;52.008;4.530;2022-10-16T12:53:18;18.26;63.42
73133;DHT22;61320;52.008;4.530;2022-10-16T12:56:20;18.26;64.52
73133;DHT22;61320;52.008;4.530;2022-10-16T13:04:03;18.20;64.47
73133;DHT22;61320;52.008;4.530;2022-10-16T13:06:55;18.20;65.29
73133;DHT22;61320;52.008;4.530;2022-10-16T13:12:16;18.30;66.92
73133;DHT22;61320;52.008;4.530;2022-10-16T13:18:18;18.14;64.31
73133;DHT22;61320;52.008;4.530;2022-10-16T13:23:30;17.87;67.16
73133;DHT22;61320;52.008;4.530;2022-10-16T13:28:39;17.89;67.74
73133;DHT22;61320;52.008;4.530;2022-10-16T13:31:17;17.93;65.15
73133;DHT22;61320;52.008;4.530;2022-10-16T13:33:48;17.86;66.33
73133;DHT22;61320;52.008;4.530;2022-10-16T13:36:30;17.85;64.23
73133;DHT22;61320;52.008;4.530;2022-10-16T13:39:21;17.87;66.50
73133;DHT22;61320;52.008;4.530;2022-10-16T13:42:10;17.97;67.15
73133;DHT22;61320;52.008;4.530;2022-10-16T13:44:51;17.99;68.79
73133;DHT22;61320;52.008;4.530;2022-10-16T13:47:26;18.03;66.48
73133;DHT22;61320;52.008;4.530;2022-10-16T13:50:09;18.06;66.40
73133;DHT22;61320;52.008;4.530;2022-10-16T13:52:36;18.09;68.94
73133;DHT22;61320;52.008;4.530;2022-10-16T13:55:16;18.16;71.00
73133;DHT22;61320;52.008;4.530;2022-10-16T13:57:43;18.23;70.29
73133;DHT22;61320;52.008;4.530;2022-10-16T14:00:22;18.24;66.30
73133;DHT22;61320;52.008;4.530;2022-10-16T14:03:21;18.27;69.21
73133;DHT22;61320;52.008;4.530;2022-10-16T14:06:00;18.29;68.26
73133;DHT22;61320;52.008;4.530;2022-10-16T14:08:29;18.29;70.32
73133;DHT22;61320;52.008;4.530;2022-10-16T14:11:00;18.37;68.09
73133;DHT22;61320;52.008;4.530;2022-10-16T14:13:53;18.37;71.65
73133;DHT22;61320;52.008;4.530;2022-10-16T14:16:23;18.47;70.12
73133;DHT22;61320;52.008;4.530;2022-10-16T14:18:57;18.50;71.14
73133;DHT22;61320;52.008;4.530;2022-10-16T14:21:24;18.47;69.16
73133;DHT22;61320;52.008;4.530;2022-10-16T14:23:50;18.51;70.18
73133;DHT22;61320;52.008;4.530;2022-10-16T14:26:23;18.45;70.02
73133;DHT22;61320;52.008;4.530;2022-10-16T14:29:09;18.50;71.16
73133;DHT22;61320;52.008;4.530;2022-10-16T14:31:35;18.45;70.05
73133;DHT22;61320;52.008;4.530;2022-10-16T14:34:02;18.44;73.17
73133;DHT22;61320;52.008;4.530;2022-10-16T14:36:30;18.41;73.08
73133;DHT22;61320;52.008;4.530;2022-10-16T14:41:32;18.38;69.32
73133;DHT22;61320;52.008;4.530;2022-10-16T14:44:05;18.40;66.88
73133;DHT22;61320;52.008;4.530;2022-10-16T14:46:39;18.36;67.59
73133;DHT22;61320;52.008;4.530;2022-10-16T14:51:34;18.38;69.12
73133;DHT22;61320;52.008;4.530;2022-10-16T14:53:59;18.36;71.36
73133;DHT22;61320;52.008;4.530;2022-10-16T14:56:29;18.31;72.58
73133;DHT22;61320;52.008;4.530;2022-10-16T14:58:56;18.34;70.63
73133;DHT22;61320;52.008;4.530;2022-10-16T15:01:22;18.27;72.91
73133;DHT22;61320;52.008;4.530;2022-10-16T15:03:48;18.18;70.41
73133;DHT22;61320;52.008;4.530;2022-10-16T15:06:14;18.14;69.05
73133;DHT22;61320;52.008;4.530;2022-10-16T15:08:41;18.17;72.18
73133;DHT22;61320;52.008;4.530;2022-10-16T15:11:16;18.14;70.13
73133;DHT22;61320;52.008;4.530;2022-10-16T15:13:42;18.16;72.38
73133;DHT22;61320;52.008;4.530;2022-10-16T15:16:12;18.17;74.40
73133;DHT22;61320;52.008;4.530;2022-10-16T15:18:37;18.17;71.23
73133;DHT22;61320;52.008;4.530;2022-10-16T15:21:03;18.20;75.09
73133;DHT22;61320;52.008;4.530;2022-10-16T15:23:29;18.20;75.37
73133;DHT22;61320;52.008;4.530;2022-10-16T15:25:55;18.26;75.01
73133;DHT22;61320;52.008;4.530;2022-10-16T15:28:22;18.23;74.10
73133;DHT22;61320;52.008;4.530;2022-10-16T15:30:50;18.26;75.26
73133;DHT22;61320;52.008;4.530;2022-10-16T15:33:19;18.24;75.10
73133;DHT22;61320;52.008;4.530;2022-10-16T15:35:47;18.21;75.34
73133;DHT22;61320;52.008;4.530;2022-10-16T15:38:14;18.23;75.60
73133;DHT22;61320;52.008;4.530;2022-10-16T15:40:40;18.23;74.31
73133;DHT22;61320;52.008;4.530;2022-10-16T15:43:05;18.21;75.53
73133;DHT22;61320;52.008;4.530;2022-10-16T15:45:31;18.18;76.01
73133;DHT22;61320;52.008;4.530;2022-10-16T15:47:56;18.17;76.19
73133;DHT22;61320;52.008;4.530;2022-10-16T15:50:22;18.17;75.34
73133;DHT22;61320;52.008;4.530;2022-10-16T15:52:50;18.14;75.63
73133;DHT22;61320;52.008;4.530;2022-10-16T15:55:15;18.11;75.85
73133;DHT22;61320;52.008;4.530;2022-10-16T15:57:42;18.09;75.91
73133;DHT22;61320;52.008;4.530;2022-10-16T16:00:11;18.11;76.27
73133;DHT22;61320;52.008;4.530;2022-10-16T16:02:38;18.04;76.02
73133;DHT22;61320;52.008;4.530;2022-10-16T16:05:04;18.03;75.78
73133;DHT22;61320;52.008;4.530;2022-10-16T16:07:33;17.99;75.23
73133;DHT22;61320;52.008;4.530;2022-10-16T16:09:59;17.97;75.90
73133;DHT22;61320;52.008;4.530;2022-10-16T16:12:25;17.94;76.14
73133;DHT22;61320;52.008;4.530;2022-10-16T16:14:50;17.89;75.50
73133;DHT22;61320;52.008;4.530;2022-10-16T16:17:16;17.87;76.18
73133;DHT22;61320;52.008;4.530;2022-10-16T16:19:42;17.85;76.08
73133;DHT22;61320;52.008;4.530;2022-10-16T16:22:07;17.79;75.89
73133;DHT22;61320;52.008;4.530;2022-10-16T16:24:33;17.76;75.87
73133;DHT22;61320;52.008;4.530;2022-10-16T16:26:58;17.73;76.10
73133;DHT22;61320;52.008;4.530;2022-10-16T16:29:27;17.75;75.62
73133;DHT22;61320;52.008;4.530;2022-10-16T16:31:52;17.71;76.28
73133;DHT22;61320;52.008;4.530;2022-10-16T16:34:28;17.69;76.01
73133;DHT22;61320;52.008;4.530;2022-10-16T16:36:57;17.68;75.87
73133;DHT22;61320;52.008;4.530;2022-10-16T16:39:23;17.66;76.41
73133;DHT22;61320;52.008;4.530;2022-10-16T16:41:51;17.65;76.75
73133;DHT22;61320;52.008;4.530;2022-10-16T16:44:17;17.61;76.72
73133;DHT22;61320;52.008;4.530;2022-10-16T16:46:44;17.61;76.78
73133;DHT22;61320;52.008;4.530;2022-10-16T16:49:13;17.59;76.80
73133;DHT22;61320;52.008;4.530;2022-10-16T16:51:43;17.56;76.59
73133;DHT22;61320;52.008;4.530;2022-10-16T16:54:10;17.53;76.68
73133;DHT22;61320;52.008;4.530;2022-10-16T16:56:37;17.52;76.95
73133;DHT22;61320;52.008;4.530;2022-10-16T16:59:02;17.52;77.52
73133;DHT22;61320;52.008;4.530;2022-10-16T17:01:29;17.53;76.98
73133;DHT22;61320;52.008;4.530;2022-10-16T17:03:56;17.52;77.03
73133;DHT22;61320;52.008;4.530;2022-10-16T17:06:25;17.51;77.00
73133;DHT22;61320;52.008;4.530;2022-10-16T17:08:52;17.48;77.03
73133;DHT22;61320;52.008;4.530;2022-10-16T17:11:23;17.51;77.09
73133;DHT22;61320;52.008;4.530;2022-10-16T17:13:50;17.48;77.18
73133;DHT22;61320;52.008;4.530;2022-10-16T17:16:16;17.49;76.50